Time;durP1;ratioP1;P1;durP2;ratioP2;P2;SDS_P1;SDS_P2;PMS_P1;PMS_P2;Temp;Humidity;BMP_temperature;BMP_pressure;BME280_temperature;BME280_humidity;BME280_pressure;Samples;Min_cycle;Max_cycle;Signal;HPM_P1;HPM_P2
2022/06/25 00:00:58;;;;;;;0.10;0.10;;;;;;;22.86;54.32;100564.81;5071928;28;20044;-40
2022/06/25 00:03:24;;;;;;;0.10;0.10;;;;;;;22.87;54.53;100571.19;5069891;28;20040;-40
2022/06/25 00:05:50;;;;;;;0.10;0.10;;;;;;;22.87;54.30;100569.22;5054001;28;20059;-42
2022/06/25 00:08:16;;;;;;;0.10;0.10;;;;;;;22.86;54.74;100567.59;5072960;28;20433;-41
2022/06/25 00:10:42;;;;;;;0.10;0.10;;;;;;;22.87;54.83;100571.19;5077751;28;20036;-43
2022/06/25 00:13:07;;;;;;;0.10;0.10;;;;;;;22.86;54.46;100567.59;5056451;28;20135;-42
2022/06/25 00:15:33;;;;;;;0.10;0.10;;;;;;;22.85;54.38;100565.13;5061489;28;20043;-40
2022/06/25 00:17:59;;;;;;;0.10;0.10;;;;;;;22.86;54.37;100570.38;5057640;28;20043;-42
2022/06/25 00:20:25;;;;;;;0.10;0.10;;;;;;;22.85;54.23;100565.97;5076075;28;20051;-42
2022/06/25 00:22:50;;;;;;;0.10;0.10;;;;;;;22.86;54.32;100570.38;5076954;28;20274;-40
2022/06/25 00:25:16;;;;;;;0.10;0.10;;;;;;;22.86;54.27;100575.91;5071496;28;20273;-39
2022/06/25 00:27:41;;;;;;;0.10;0.10;;;;;;;22.87;54.57;100576.72;5070274;28;20534;-42
2022/06/25 00:30:08;;;;;;;0.10;0.10;;;;;;;22.87;54.33;100582.28;5079240;28;20051;-41
2022/06/25 00:32:34;;;;;;;0.10;0.10;;;;;;;22.86;54.96;100584.25;5078502;28;20185;-42
2022/06/25 00:35:00;;;;;;;0.10;0.10;;;;;;;22.86;54.22;100586.22;5058869;28;20068;-41
2022/06/25 00:37:26;;;;;;;0.10;0.10;;;;;;;22.85;54.72;100590.94;5075413;28;20088;-38
2022/06/25 00:39:52;;;;;;;0.10;0.10;;;;;;;22.86;54.37;100588.97;5075549;28;20376;-41
2022/06/25 00:42:17;;;;;;;0.10;0.10;;;;;;;22.87;54.25;100587.84;5074689;28;20055;-41
2022/06/25 00:44:43;;;;;;;0.10;0.10;;;;;;;22.85;54.24;100592.91;5056161;28;20044;-42
2022/06/25 00:47:12;;;;;;;0.10;0.10;;;;;;;22.85;54.18;100598.47;5069794;28;20048;-41
2022/06/25 00:49:38;;;;;;;0.10;0.10;;;;;;;22.85;54.22;100596.50;5039774;28;20044;-41
2022/06/25 00:52:10;;;;;;;0.10;0.10;;;;;;;22.86;54.49;100608.41;5076355;28;20075;-40
2022/06/25 00:54:37;;;;;;;0.10;0.10;;;;;;;22.85;54.27;100602.06;5053248;28;20091;-41
2022/06/25 00:57:06;;;;;;;0.10;0.10;;;;;;;22.85;54.38;100610.38;5040605;28;20128;-40
2022/06/25 00:59:36;;;;;;;0.10;0.10;;;;;;;22.84;54.15;100608.75;5062308;28;20045;-42
2022/06/25 01:02:02;;;;;;;0.10;0.10;;;;;;;22.85;54.38;100606.78;5055099;28;20083;-40
2022/06/25 01:04:29;;;;;;;0.10;0.10;;;;;;;22.83;54.38;100609.84;5076441;28;20075;-40
2022/06/25 01:06:55;;;;;;;0.10;0.10;;;;;;;22.85;54.27;100610.38;5041938;28;20079;-40
2022/06/25 01:09:21;;;;;;;0.10;0.10;;;;;;;22.85;54.39;100617.91;5076343;28;20056;-41
2022/06/25 01:11:47;;;;;;;0.10;0.10;;;;;;;22.83;54.22;100617.38;5072984;28;20429;-40
2022/06/25 01:14:13;;;;;;;0.10;0.10;;;;;;;22.83;54.27;100620.97;5077176;28;20082;-41
2022/06/25 01:16:39;;;;;;;0.10;0.10;;;;;;;22.84;54.18;100622.63;5077001;28;20050;-42
2022/06/25 01:19:08;;;;;;;0.10;0.10;;;;;;;22.83;54.33;100629.28;5073517;28;20051;-41
2022/06/25 01:21:35;;;;;;;0.10;0.10;;;;;;;22.83;54.38;100631.25;5046745;28;20135;-41
2022/06/25 01:24:02;;;;;;;0.10;0.10;;;;;;;22.83;54.38;100634.84;5075689;28;20088;-42
2022/06/25 01:26:28;;;;;;;0.10;0.10;;;;;;;22.83;54.24;100640.41;5055166;28;20226;-41
2022/06/25 01:28:53;;;;;;;0.10;0.10;;;;;;;22.83;54.30;100634.03;5054274;28;20049;-42
2022/06/25 01:31:19;;;;;;;0.10;0.10;;;;;;;22.85;54.30;100645.66;5077618;28;20087;-40
2022/06/25 01:33:45;;;;;;;0.10;0.10;;;;;;;22.83;54.24;100642.34;5074164;28;20049;-41
2022/06/25 01:36:10;;;;;;;0.10;0.10;;;;;;;22.83;54.22;100647.91;5073543;28;20051;-41
2022/06/25 01:38:36;;;;;;;0.10;0.10;;;;;;;22.82;54.33;100644.31;5074450;28;20037;-41
2022/06/25 01:41:01;;;;;;;0.10;0.10;;;;;;;22.84;54.70;100644.84;5077447;28;20453;-40
2022/06/25 01:43:27;;;;;;;0.10;0.10;;;;;;;22.83;54.54;100647.91;5078425;28;20036;-43
2022/06/25 01:45:53;;;;;;;0.10;0.10;;;;;;;22.82;54.24;100647.09;5074039;28;20123;-41
2022/06/25 01:48:19;;;;;;;0.10;0.10;;;;;;;22.83;54.31;100650.69;5070386;28;20040;-42
2022/06/25 01:50:44;;;;;;;0.10;0.10;;;;;;;22.82;54.45;100649.88;5070937;28;20048;-41
2022/06/25 01:53:10;;;;;;;0.10;0.10;;;;;;;22.82;54.14;100652.66;5074040;28;20060;-42
2022/06/25 01:55:36;;;;;;;0.10;0.10;;;;;;;22.82;54.25;100658.19;5072817;28;20040;-40
2022/06/25 01:58:02;;;;;;;0.10;0.10;;;;;;;22.82;54.26;100660.97;5059164;28;20122;-41
2022/06/25 02:00:30;;;;;;;0.10;0.10;;;;;;;22.83;54.49;100653.47;5054692;28;20090;-42
2022/06/25 02:02:56;;;;;;;0.10;0.10;;;;;;;22.82;54.14;100663.75;5057062;28;20476;-41
2022/06/25 02:08:13;;;;;;;0.10;0.10;;;;;;;22.82;54.40;100662.94;5053091;28;20127;-42
2022/06/25 02:10:39;;;;;;;0.10;0.10;;;;;;;22.81;54.73;100666.84;5077687;28;20080;-38
2022/06/25 02:13:05;;;;;;;0.10;0.10;;;;;;;22.82;54.30;100674.03;5059030;28;20137;-42
2022/06/25 02:15:31;;;;;;;0.10;0.10;;;;;;;22.81;54.99;100670.44;5072281;28;20534;-42
2022/06/25 02:17:57;;;;;;;0.10;0.10;;;;;;;22.81;54.22;100673.22;5056603;28;20479;-40
2022/06/25 02:20:22;;;;;;;0.10;0.10;;;;;;;22.81;54.24;100675.19;5074523;28;20081;-40
2022/06/25 02:22:48;;;;;;;0.10;0.10;;;;;;;22.81;54.42;100673.22;5072014;28;20087;-40
2022/06/25 02:25:14;;;;;;;0.10;0.10;;;;;;;22.81;54.26;100677.97;5072020;28;20475;-41
2022/06/25 02:27:39;;;;;;;0.10;0.10;;;;;;;22.80;54.19;100677.13;5073246;28;20037;-40
2022/06/25 02:30:05;;;;;;;0.10;0.10;;;;;;;22.82;54.28;100688.72;5074156;28;20045;-40
2022/06/25 02:32:31;;;;;;;0.10;0.10;;;;;;;22.81;54.21;100691.84;5074105;28;20083;-42
2022/06/25 02:34:57;;;;;;;0.10;0.10;;;;;;;22.81;54.64;100681.53;5072135;28;20051;-40
2022/06/25 02:37:23;;;;;;;0.10;0.10;;;;;;;22.80;54.46;100685.47;5073284;28;20078;-40
2022/06/25 02:39:48;;;;;;;0.10;0.10;;;;;;;22.80;54.13;100691.03;5071730;28;20398;-40
2022/06/25 02:42:14;;;;;;;0.10;0.10;;;;;;;22.81;54.10;100694.63;5076896;28;20056;-41
2022/06/25 02:44:39;;;;;;;0.10;0.10;;;;;;;22.79;54.55;100692.94;5070425;28;20056;-41
2022/06/25 02:47:05;;;;;;;0.10;0.10;;;;;;;22.81;54.92;100695.44;5072561;28;20069;-42
2022/06/25 02:49:31;;;;;;;0.10;0.10;;;;;;;22.81;54.31;100695.44;5073092;28;20044;-42
2022/06/25 02:51:56;;;;;;;0.10;0.10;;;;;;;22.81;54.21;100700.16;5069684;28;20052;-40
2022/06/25 02:54:23;;;;;;;0.10;0.10;;;;;;;22.81;54.10;100705.72;5069930;28;20047;-41
2022/06/25 02:59:34;;;;;;;0.10;0.10;;;;;;;22.78;54.34;100707.97;5057613;28;20143;-40
2022/06/25 03:01:59;;;;;;;0.10;0.10;;;;;;;22.79;54.18;100703.22;5073816;28;20055;-41
2022/06/25 03:04:25;;;;;;;0.10;0.10;;;;;;;22.78;54.51;100707.97;5071874;28;20135;-41
2022/06/25 03:06:51;;;;;;;0.10;0.10;;;;;;;22.78;54.09;100702.41;5073848;28;20081;-39
2022/06/25 03:09:17;;;;;;;0.10;0.10;;;;;;;22.79;54.41;100703.22;5069932;28;20463;-40
2022/06/25 03:11:42;;;;;;;0.10;0.10;;;;;;;22.79;54.65;100706.81;5072932;28;20101;-41
2022/06/25 03:14:08;;;;;;;0.10;0.10;;;;;;;22.79;54.17;100703.22;5057387;28;20060;-42
2022/06/25 03:16:34;;;;;;;0.10;0.10;;;;;;;22.78;54.35;100705.19;5055557;28;20044;-41
2022/06/25 03:19:01;;;;;;;0.10;0.10;;;;;;;22.79;54.18;100712.38;5070624;28;20087;-40
2022/06/25 03:21:26;;;;;;;0.10;0.10;;;;;;;22.80;54.44;100713.22;5075810;28;20576;-41
2022/06/25 03:23:52;;;;;;;0.10;0.10;;;;;;;22.79;54.38;100714.34;5053504;28;20049;-41
2022/06/25 03:26:18;;;;;;;0.10;0.10;;;;;;;22.79;54.10;100714.34;5074117;28;20499;-38
2022/06/25 03:28:43;;;;;;;0.10;0.10;;;;;;;22.78;54.53;100716.28;5073648;28;20044;-40
2022/06/25 03:31:09;;;;;;;0.10;0.10;;;;;;;22.78;54.75;100719.06;5071983;28;20048;-42
2022/06/25 03:33:35;;;;;;;0.20;0.20;;;;;;;22.80;54.23;100724.34;5072671;28;20052;-41
2022/06/25 03:36:00;;;;;;;0.10;0.10;;;;;;;22.78;54.50;100727.41;5069751;28;20233;-40
2022/06/25 03:38:26;;;;;;;0.10;0.10;;;;;;;22.79;54.35;100728.22;5074145;28;20036;-40
2022/06/25 03:41:32;;;;;;;0.10;0.10;;;;;;;22.77;54.35;100728.53;5069342;28;20041;-42
2022/06/25 03:43:37;;;;;;;0.10;0.10;;;;;;;22.78;54.17;100732.13;5060025;28;20147;-40
2022/06/25 03:46:04;;;;;;;0.10;0.10;;;;;;;22.78;54.66;100734.91;5075612;28;20054;-42
2022/06/25 03:48:29;;;;;;;0.10;0.10;;;;;;;22.77;54.50;100734.09;5073920;28;20045;-42
2022/06/25 03:50:55;;;;;;;0.10;0.10;;;;;;;22.78;54.07;100743.25;5074121;28;20043;-41
2022/06/25 03:53:21;;;;;;;0.10;0.10;;;;;;;22.78;54.83;100741.28;5074407;28;20055;-42
2022/06/25 03:55:46;;;;;;;0.10;0.10;;;;;;;22.78;54.17;100746.00;5079647;28;20044;-42
2022/06/25 03:58:19;;;;;;;0.10;0.10;;;;;;;22.76;54.10;100735.22;5073419;28;20094;-41
2022/06/25 04:00:45;;;;;;;0.10;0.10;;;;;;;22.78;54.40;100740.47;5076049;28;20040;-40
2022/06/25 04:03:10;;;;;;;0.10;0.10;;;;;;;22.78;54.54;100740.47;5077597;28;20051;-40
2022/06/25 04:05:36;;;;;;;0.10;0.10;;;;;;;22.78;54.34;100741.28;5061072;28;20059;-42
2022/06/25 04:08:02;;;;;;;0.10;0.10;;;;;;;22.78;54.73;100743.25;5074573;28;20667;-41
2022/06/25 04:10:27;;;;;;;0.20;0.13;;;;;;;22.77;54.48;100742.41;5081237;28;20048;-41
2022/06/25 04:13:00;;;;;;;0.10;0.10;;;;;;;22.78;54.65;100746.00;5073492;28;20073;-42
2022/06/25 04:15:26;;;;;;;0.10;0.10;;;;;;;22.77;54.36;100742.41;5076681;28;20467;-40
2022/06/25 04:17:52;;;;;;;0.10;0.10;;;;;;;22.77;54.35;100749.94;5073669;28;20093;-42
2022/06/25 04:20:17;;;;;;;0.10;0.10;;;;;;;22.77;54.53;100750.75;5075236;28;20048;-40
2022/06/25 04:22:43;;;;;;;0.10;0.10;;;;;;;22.76;54.17;100745.53;5077997;28;20228;-40
2022/06/25 04:25:09;;;;;;;0.10;0.10;;;;;;;22.77;54.38;100744.38;5073120;28;20415;-42
2022/06/25 04:30:20;;;;;;;0.10;0.10;;;;;;;22.76;54.30;100751.88;5062682;28;20494;-42
2022/06/25 04:32:46;;;;;;;0.10;0.10;;;;;;;22.75;54.12;100744.69;5056627;28;20048;-41
2022/06/25 04:35:12;;;;;;;0.10;0.10;;;;;;;22.76;54.43;100751.06;5072122;28;20053;-42
2022/06/25 04:37:37;;;;;;;0.10;0.10;;;;;;;22.76;54.12;100757.44;5072066;28;20048;-37
2022/06/25 04:40:03;;;;;;;0.10;0.10;;;;;;;22.76;54.20;100745.53;5073258;28;20497;-42
2022/06/25 04:42:29;;;;;;;0.10;0.10;;;;;;;22.77;54.26;100755.47;5073908;28;20467;-42
2022/06/25 04:44:55;;;;;;;0.10;0.10;;;;;;;22.76;54.34;100746.34;5072858;28;20074;-42
2022/06/25 04:47:20;;;;;;;0.10;0.10;;;;;;;22.76;54.22;100745.53;5071436;28;20479;-41
2022/06/25 04:49:46;;;;;;;0.10;0.10;;;;;;;22.75;54.87;100747.47;5075255;28;20042;-42
2022/06/25 04:52:12;;;;;;;0.10;0.10;;;;;;;22.75;54.30;100749.41;5057072;28;20045;-43
2022/06/25 04:54:37;;;;;;;0.10;0.10;;;;;;;22.76;54.20;100756.63;5073634;28;20060;-42
2022/06/25 04:57:03;;;;;;;0.10;0.10;;;;;;;22.77;54.34;100749.94;5071640;28;20367;-42
2022/06/25 04:59:29;;;;;;;0.10;0.10;;;;;;;22.75;54.57;100749.41;5075232;28;20119;-42
2022/06/25 05:01:54;;;;;;;0.10;0.10;;;;;;;22.76;54.59;100749.13;5081154;28;20056;-41
2022/06/25 05:04:20;;;;;;;0.10;0.10;;;;;;;22.75;54.06;100755.81;5076929;28;20078;-41
2022/06/25 05:06:46;;;;;;;0.10;0.10;;;;;;;22.75;53.97;100755.81;5077556;28;20445;-42
2022/06/25 05:09:12;;;;;;;0.10;0.10;;;;;;;22.75;54.08;100760.50;5079802;28;20052;-40
2022/06/25 05:11:38;;;;;;;0.10;0.10;;;;;;;22.75;54.01;100766.91;5059115;28;20108;-40
2022/06/25 05:14:03;;;;;;;0.10;0.10;;;;;;;22.75;54.25;100769.69;5077403;28;20053;-41
2022/06/25 05:16:29;;;;;;;0.10;0.10;;;;;;;22.75;54.28;100771.63;5073330;28;20358;-42
2022/06/25 05:18:55;;;;;;;0.10;0.10;;;;;;;22.75;54.35;100768.84;5071283;28;20478;-41
2022/06/25 05:21:20;;;;;;;0.10;0.10;;;;;;;22.73;54.28;100773.88;5078048;28;20044;-40
2022/06/25 05:23:46;;;;;;;0.10;0.10;;;;;;;22.75;54.14;100774.38;5073753;28;20055;-40
2022/06/25 05:26:12;;;;;;;0.10;0.10;;;;;;;22.74;54.24;100776.34;5073521;28;20098;-41
2022/06/25 05:28:38;;;;;;;0.10;0.10;;;;;;;22.75;54.86;100771.63;5071861;28;20201;-41
2022/06/25 05:31:03;;;;;;;0.10;0.10;;;;;;;22.75;53.93;100774.38;5074392;28;20429;-41
2022/06/25 05:33:29;;;;;;;0.10;0.10;;;;;;;22.74;54.35;100776.34;5074090;28;20036;-41
2022/06/25 05:35:55;;;;;;;0.10;0.10;;;;;;;22.74;54.15;100775.53;5071931;28;20040;-41
2022/06/25 05:38:20;;;;;;;0.10;0.10;;;;;;;22.73;54.05;100783.03;5058717;28;20040;-41
2022/06/25 05:40:46;;;;;;;0.10;0.10;;;;;;;22.74;54.17;100781.91;5074496;28;20486;-40
2022/06/25 05:43:12;;;;;;;0.10;0.10;;;;;;;22.73;54.07;100785.81;5059752;28;20079;-41
2022/06/25 05:45:38;;;;;;;0.10;0.10;;;;;;;22.74;54.67;100793.00;5070906;28;20054;-41
2022/06/25 05:48:04;;;;;;;0.10;0.10;;;;;;;22.73;54.20;100794.13;5069342;28;20097;-41
2022/06/25 05:50:30;;;;;;;0.10;0.10;;;;;;;22.74;54.02;100793.00;5068451;28;20480;-42
2022/06/25 05:52:56;;;;;;;0.10;0.10;;;;;;;22.74;54.17;100797.75;5054041;28;20048;-41
2022/06/25 05:55:23;;;;;;;0.10;0.10;;;;;;;22.73;54.20;100796.09;5074940;28;20048;-40
2022/06/25 05:57:49;;;;;;;0.10;0.10;;;;;;;22.73;53.90;100802.47;5055490;28;20075;-42
2022/06/25 06:00:15;;;;;;;0.10;0.10;;;;;;;22.73;54.46;100807.19;5073646;28;20147;-41
2022/06/25 06:02:41;;;;;;;0.10;0.10;;;;;;;22.73;54.66;100802.47;5071287;28;20041;-40
2022/06/25 06:05:07;;;;;;;0.10;0.10;;;;;;;22.74;54.22;100794.97;5073535;28;20094;-41
2022/06/25 06:07:33;;;;;;;0.10;0.10;;;;;;;22.73;54.45;100798.88;5071411;28;20040;-42
2022/06/25 06:09:59;;;;;;;0.10;0.10;;;;;;;22.72;54.25;100806.38;5076254;28;20077;-42
2022/06/25 06:12:25;;;;;;;0.10;0.10;;;;;;;22.73;54.74;100809.97;5073436;28;20406;-41
2022/06/25 06:14:51;;;;;;;0.10;0.10;;;;;;;22.72;54.03;100803.59;5073246;28;20050;-42
2022/06/25 06:17:16;;;;;;;0.10;0.10;;;;;;;22.72;53.83;100802.78;5072630;28;20326;-42
2022/06/25 06:19:42;;;;;;;0.10;0.10;;;;;;;22.74;54.10;100814.38;5059768;28;20048;-42
2022/06/25 06:22:08;;;;;;;0.10;0.10;;;;;;;22.73;53.96;100809.97;5073112;28;20036;-40
2022/06/25 06:24:43;;;;;;;0.10;0.10;;;;;;;22.72;54.16;100816.66;5073817;28;20044;-42
2022/06/25 06:27:09;;;;;;;0.10;0.10;;;;;;;22.74;53.92;100814.38;5069942;28;20075;-41
2022/06/25 06:29:34;;;;;;;0.10;0.10;;;;;;;22.73;53.98;100818.31;5073251;28;20109;-41
2022/06/25 06:32:00;;;;;;;0.10;0.10;;;;;;;22.73;54.06;100823.84;5074058;28;20059;-42
2022/06/25 06:34:26;;;;;;;0.10;0.10;;;;;;;22.74;54.03;100820.75;5071131;28;20431;-41
2022/06/25 06:36:51;;;;;;;0.10;0.10;;;;;;;22.73;54.58;100813.56;5078930;28;20051;-41
2022/06/25 06:39:17;;;;;;;0.10;0.10;;;;;;;22.73;53.91;100823.84;5055167;28;20471;-42
2022/06/25 06:41:43;;;;;;;0.10;0.10;;;;;;;22.72;54.22;100814.72;5076902;28;20044;-41
2022/06/25 06:44:08;;;;;;;0.10;0.10;;;;;;;22.72;54.28;100814.72;5069324;28;20532;-42
2022/06/25 06:46:38;;;;;;;0.10;0.10;;;;;;;22.73;54.36;100819.13;5051531;28;20445;-41
2022/06/25 06:49:04;;;;;;;0.10;0.10;;;;;;;22.72;53.92;100820.25;5070103;28;20051;-39
2022/06/25 06:51:30;;;;;;;0.10;0.10;;;;;;;22.72;54.47;100813.88;5072536;28;20119;-42
2022/06/25 06:53:55;;;;;;;0.10;0.10;;;;;;;22.72;54.26;100820.25;5070331;28;20070;-41
2022/06/25 06:56:21;;;;;;;0.10;0.10;;;;;;;22.72;53.92;100823.03;5072513;28;20049;-41
2022/06/25 06:58:47;;;;;;;0.20;0.20;;;;;;;22.73;53.97;100826.63;5075450;28;20079;-41
2022/06/25 07:01:13;;;;;;;0.10;0.10;;;;;;;22.72;53.99;100825.00;5073132;28;20071;-42
2022/06/25 07:03:39;;;;;;;0.10;0.10;;;;;;;22.72;53.95;100827.78;5073378;28;20051;-42
2022/06/25 07:06:05;;;;;;;0.10;0.10;;;;;;;22.71;54.08;100824.19;5069045;28;20040;-39
2022/06/25 07:08:31;;;;;;;0.10;0.10;;;;;;;22.72;53.91;100833.31;5070079;28;20351;-41
2022/06/25 07:10:56;;;;;;;0.10;0.10;;;;;;;22.72;54.84;100828.59;5072614;28;20040;-41
2022/06/25 07:13:22;;;;;;;0.10;0.10;;;;;;;22.71;54.00;100832.50;5073584;28;20384;-40
2022/06/25 07:15:47;;;;;;;0.10;0.10;;;;;;;22.71;53.73;100835.28;5075463;28;20058;-40
2022/06/25 07:18:13;;;;;;;0.10;0.10;;;;;;;22.72;53.97;100834.16;5072323;28;20040;-41
2022/06/25 07:20:40;;;;;;;0.10;0.10;;;;;;;22.72;54.03;100839.69;5075128;28;20045;-40
2022/06/25 07:23:05;;;;;;;0.10;0.10;;;;;;;22.72;53.93;100838.88;5076665;28;20438;-40
2022/06/25 07:25:31;;;;;;;0.10;0.10;;;;;;;22.71;53.99;100831.66;5078660;28;20041;-41
2022/06/25 07:27:56;;;;;;;0.10;0.10;;;;;;;22.71;54.07;100832.50;5075377;28;20387;-41
2022/06/25 07:30:24;;;;;;;0.10;0.10;;;;;;;22.72;54.03;100825.00;5075565;28;20367;-41
2022/06/25 07:32:49;;;;;;;0.10;0.10;;;;;;;22.71;53.97;100832.50;5059537;28;20147;-39
2022/06/25 07:35:15;;;;;;;0.10;0.10;;;;;;;22.71;53.86;100828.88;5072699;28;20045;-40
2022/06/25 07:37:42;;;;;;;0.10;0.10;;;;;;;22.71;53.85;100826.09;5076337;28;20044;-42
2022/06/25 07:40:08;;;;;;;0.20;0.20;;;;;;;22.72;53.87;100827.78;5078731;28;20130;-40
2022/06/25 07:42:34;;;;;;;0.10;0.10;;;;;;;22.71;53.82;100828.88;5077845;28;20084;-41
2022/06/25 07:45:00;;;;;;;0.10;0.10;;;;;;;22.71;53.61;100820.56;5073164;28;20514;-40
2022/06/25 07:47:25;;;;;;;0.10;0.10;;;;;;;22.71;53.94;100831.66;5059734;28;20414;-38
2022/06/25 07:52:37;;;;;;;0.10;0.10;;;;;;;22.71;54.10;100824.19;5059452;28;20454;-42
2022/06/25 07:55:03;;;;;;;0.10;0.10;;;;;;;22.71;53.96;100823.31;5074931;28;20048;-42
2022/06/25 07:57:29;;;;;;;0.10;0.10;;;;;;;22.71;53.82;100820.56;5058110;28;20538;-42
2022/06/25 07:59:55;;;;;;;0.10;0.10;;;;;;;22.71;54.76;100821.41;5074639;28;20040;-40
2022/06/25 08:02:21;;;;;;;0.10;0.10;;;;;;;22.71;54.23;100823.31;5056871;28;20041;-40
2022/06/25 08:04:46;;;;;;;0.10;0.10;;;;;;;22.71;54.21;100821.41;5077864;28;20044;-42
2022/06/25 08:07:12;;;;;;;0.10;0.10;;;;;;;22.71;53.82;100820.56;5073734;28;20147;-40
2022/06/25 08:09:38;;;;;;;0.10;0.10;;;;;;;22.70;53.79;100828.06;5073429;28;20048;-41
2022/06/25 08:12:04;;;;;;;0.10;0.10;;;;;;;22.71;54.00;100823.31;5076076;28;20055;-40
2022/06/25 08:14:29;;;;;;;0.10;0.10;;;;;;;22.71;53.93;100817.78;5075192;28;20075;-42
2022/06/25 08:16:55;;;;;;;0.10;0.10;;;;;;;22.69;53.94;100815.31;5073002;28;20049;-41
2022/06/25 08:19:22;;;;;;;0.10;0.10;;;;;;;22.70;53.85;100828.06;5075010;28;20040;-42
2022/06/25 08:21:47;;;;;;;0.10;0.10;;;;;;;22.70;53.93;100822.50;5073356;28;20135;-40
2022/06/25 08:24:13;;;;;;;0.10;0.10;;;;;;;22.70;53.93;100833.63;5075096;28;20071;-41
2022/06/25 08:26:39;;;;;;;0.10;0.10;;;;;;;22.70;54.17;100830.00;5075211;28;20040;-42
2022/06/25 08:29:04;;;;;;;0.10;0.10;;;;;;;22.69;53.85;100829.19;5074604;28;20094;-41
2022/06/25 08:31:30;;;;;;;0.10;0.10;;;;;;;22.70;53.79;100830.84;5078461;28;20044;-40
2022/06/25 08:33:56;;;;;;;0.10;0.10;;;;;;;22.70;54.01;100835.56;5073696;28;20467;-40
2022/06/25 08:36:22;;;;;;;0.10;0.10;;;;;;;22.70;54.02;100836.38;5073778;28;20735;-40
2022/06/25 08:38:47;;;;;;;0.10;0.10;;;;;;;22.70;53.86;100836.38;5075425;28;20075;-42
2022/06/25 08:41:13;;;;;;;0.10;0.10;;;;;;;22.70;53.83;100836.38;5055083;28;20080;-42
2022/06/25 08:43:40;;;;;;;0.10;0.10;;;;;;;22.69;54.14;100831.97;5072355;28;20399;-41
2022/06/25 08:46:06;;;;;;;0.10;0.10;;;;;;;22.70;53.76;100832.78;5077475;28;20086;-42
2022/06/25 08:48:33;;;;;;;0.10;0.10;;;;;;;22.71;54.17;100826.09;5072492;28;20040;-40
2022/06/25 08:50:59;;;;;;;0.10;0.10;;;;;;;22.70;53.88;100830.00;5055755;28;20126;-42
2022/06/25 08:53:30;;;;;;;0.10;0.10;;;;;;;22.69;53.93;100823.66;5074456;28;20106;-40
2022/06/25 08:55:56;;;;;;;0.10;0.10;;;;;;;22.69;53.82;100831.97;5072914;28;20088;-40
2022/06/25 08:58:22;;;;;;;0.10;0.10;;;;;;;22.68;54.39;100821.19;5077167;28;20431;-40
2022/06/25 09:00:48;;;;;;;0.10;0.10;;;;;;;22.69;54.23;100826.41;5059164;28;20051;-40
2022/06/25 09:03:14;;;;;;;0.10;0.10;;;;;;;22.68;53.86;100827.56;5075996;28;20079;-41
2022/06/25 09:05:42;;;;;;;0.10;0.10;;;;;;;22.70;53.86;100821.69;5074821;28;20043;-42
2022/06/25 09:08:10;;;;;;;0.10;0.10;;;;;;;22.69;53.92;100822.81;5078528;28;20490;-38
2022/06/25 09:10:36;;;;;;;0.10;0.10;;;;;;;22.70;53.88;100827.25;5076493;28;20183;-41
2022/06/25 09:13:05;;;;;;;0.10;0.10;;;;;;;22.69;53.94;100825.59;5056732;28;20102;-42
2022/06/25 09:15:33;;;;;;;0.10;0.10;;;;;;;22.69;53.85;100825.59;5055295;28;20072;-40
2022/06/25 09:18:06;;;;;;;0.10;0.10;;;;;;;22.69;54.66;100823.66;5040613;28;20478;-41
2022/06/25 09:20:32;;;;;;;0.10;0.10;;;;;;;22.68;54.01;100824.78;5039699;28;20047;-41
2022/06/25 09:23:00;;;;;;;0.28;0.10;;;;;;;22.69;54.10;100822.81;5078729;28;20045;-40
2022/06/25 09:25:28;;;;;;;0.10;0.10;;;;;;;22.68;53.99;100815.63;5072687;28;20068;-42
2022/06/25 09:27:54;;;;;;;0.10;0.10;;;;;;;22.68;53.83;100822.00;5071065;28;20064;-40
2022/06/25 09:30:21;;;;;;;0.10;0.10;;;;;;;22.68;53.95;100822.00;5058498;28;20068;-41
2022/06/25 09:32:53;;;;;;;0.10;0.10;;;;;;;22.68;53.91;100813.69;5057593;28;20144;-43
2022/06/25 09:35:31;;;;;;;0.10;0.10;;;;;;;22.69;53.68;100815.31;5078334;28;20045;-42
2022/06/25 09:38:14;;;;;;;0.10;0.10;;;;;;;22.68;53.99;100810.09;5039675;28;20125;-42
2022/06/25 09:40:47;;;;;;;0.10;0.10;;;;;;;22.69;54.24;100812.53;5058732;28;20064;-40
2022/06/25 09:43:18;;;;;;;0.10;0.10;;;;;;;22.68;53.72;100808.13;5050690;28;20136;-40
2022/06/25 09:45:45;;;;;;;0.10;0.10;;;;;;;22.68;53.82;100808.13;5038658;28;20079;-42
2022/06/25 09:48:21;;;;;;;0.10;0.10;;;;;;;22.68;53.99;100802.56;5057082;28;20136;-40
2022/06/25 09:51:05;;;;;;;0.10;0.10;;;;;;;22.69;54.24;100803.41;5037768;28;20113;-39
2022/06/25 09:53:33;;;;;;;0.10;0.10;;;;;;;22.68;53.92;100804.53;5069713;28;20131;-38
2022/06/25 09:55:59;;;;;;;0.10;0.10;;;;;;;22.67;53.80;100809.25;5056144;28;20072;-38
2022/06/25 09:58:25;;;;;;;0.10;0.10;;;;;;;22.68;54.03;100812.84;5054587;28;20064;-40
2022/06/25 10:00:56;;;;;;;0.10;0.10;;;;;;;22.68;53.91;100812.84;5055397;28;20044;-41
2022/06/25 10:03:23;;;;;;;0.10;0.10;;;;;;;22.69;54.14;100820.06;5079478;28;20085;-41
2022/06/25 10:05:48;;;;;;;0.10;0.10;;;;;;;22.68;54.13;100810.91;5073537;28;20080;-40
2022/06/25 10:08:15;;;;;;;0.10;0.10;;;;;;;22.69;54.16;100808.94;5071505;28;20144;-40
2022/06/25 10:10:44;;;;;;;0.10;0.10;;;;;;;22.68;53.77;100802.56;5073523;28;20490;-41
2022/06/25 10:13:10;;;;;;;0.10;0.10;;;;;;;22.69;54.08;100807.00;5075541;28;20064;-41
2022/06/25 10:15:37;;;;;;;0.10;0.10;;;;;;;22.68;53.94;100804.53;5072163;28;20737;-41
2022/06/25 10:18:06;;;;;;;0.10;0.10;;;;;;;22.68;53.88;100802.56;5073700;28;20078;-39
2022/06/25 10:20:33;;;;;;;0.10;0.10;;;;;;;22.67;53.77;100808.44;5077380;28;20077;-40
2022/06/25 10:23:01;;;;;;;0.10;0.10;;;;;;;22.68;53.79;100799.81;5074798;28;20395;-40
2022/06/25 10:25:27;;;;;;;;;;;;;;;22.67;53.89;100800.94;5073439;28;20040;-40
2022/06/25 10:28:05;;;;;;;0.10;0.10;;;;;;;22.67;53.99;100805.66;5056232;28;20005;-42
2022/06/25 10:30:37;;;;;;;0.10;0.10;;;;;;;22.68;54.00;100796.19;5074524;28;20086;-41
2022/06/25 10:33:03;;;;;;;0.10;0.10;;;;;;;22.67;54.45;100783.47;5043394;28;20169;-40
2022/06/25 10:35:35;;;;;;;0.10;0.10;;;;;;;22.68;53.87;100787.88;5056711;28;20047;-42
2022/06/25 10:38:12;;;;;;;0.10;0.10;;;;;;;22.66;54.11;100782.63;5074481;28;21247;-41
2022/06/25 10:40:56;;;;;;;0.10;0.10;;;;;;;22.67;54.00;100778.72;5054805;28;20080;-40
2022/06/25 10:43:40;;;;;;;0.10;0.10;;;;;;;22.69;53.67;100789.50;5057411;28;20068;-40
2022/06/25 10:46:37;;;;;;;0.10;0.10;;;;;;;22.68;53.83;100782.31;5046571;28;20098;-41
2022/06/25 10:49:07;;;;;;;0.10;0.10;;;;;;;22.67;53.86;100781.50;5072911;28;20139;-41
2022/06/25 10:51:47;;;;;;;0.10;0.10;;;;;;;22.68;53.84;100790.66;5073371;28;20076;-42
2022/06/25 10:54:35;;;;;;;0.10;0.10;;;;;;;22.67;54.00;100781.50;5072224;28;20555;-40
2022/06/25 10:57:04;;;;;;;0.10;0.10;;;;;;;22.68;53.86;100787.88;5044206;28;20537;-40
2022/06/25 10:59:46;;;;;;;0.10;0.10;;;;;;;22.67;53.84;100778.72;5057211;28;20047;-40
2022/06/25 11:02:14;;;;;;;0.10;0.10;;;;;;;22.68;53.86;100793.44;5078006;28;20098;-41
2022/06/25 11:04:49;;;;;;;0.10;0.10;;;;;;;22.67;54.04;100789.00;5055357;28;20055;-40
2022/06/25 11:07:17;;;;;;;0.10;0.10;;;;;;;22.68;54.00;100788.69;5032223;28;20056;-40
2022/06/25 11:09:59;;;;;;;0.10;0.10;;;;;;;22.67;53.83;100792.59;5052765;28;20083;-39
2022/06/25 11:12:27;;;;;;;0.10;0.10;;;;;;;22.66;53.71;100782.63;5053527;28;20080;-38
2022/06/25 11:15:08;;;;;;;0.10;0.10;;;;;;;22.66;53.76;100788.16;5053397;28;20128;-40
2022/06/25 11:17:35;;;;;;;0.10;0.10;;;;;;;22.67;54.17;100780.69;5052444;28;20077;-42
2022/06/25 11:20:07;;;;;;;0.10;0.10;;;;;;;22.66;54.20;100785.38;5035049;28;20045;-39
2022/06/25 11:22:33;;;;;;;0.10;0.10;;;;;;;22.66;53.93;100790.94;5054117;28;20523;-40
2022/06/25 11:30:33;;;;;;;0.10;0.10;;;;;;;22.65;53.95;100783.75;5041297;28;20144;-41
2022/06/25 11:32:59;;;;;;;0.10;0.10;;;;;;;22.66;54.11;100784.56;5051938;28;20045;-40
2022/06/25 11:35:38;;;;;;;0.10;0.10;;;;;;;22.66;53.77;100781.78;5051852;28;20052;-41
2022/06/25 11:38:03;;;;;;;0.10;0.10;;;;;;;22.66;53.81;100784.56;5029666;28;20065;-40
2022/06/25 11:40:29;;;;;;;0.10;0.10;;;;;;;22.66;53.85;100779.84;5051733;28;20048;-39